Time;durP1;ratioP1;P1;durP2;ratioP2;P2;SDS_P1;SDS_P2;PMS_P1;PMS_P2;Temp;Humidity;BMP_temperature;BMP_pressure;BME280_temperature;BME280_humidity;BME280_pressure;Samples;Min_cycle;Max_cycle;Signal;HPM_P1;HPM_P2
2022/07/07 00:02:24;;;;;;;4.45;2.00;;;;;;;12.23;82.25;95872.55;1767430;81;21028;-64
2022/07/07 00:04:51;;;;;;;3.12;1.80;;;;;;;12.28;82.37;95866.25;1767104;81;20942;-64
2022/07/07 00:07:19;;;;;;;2.85;1.80;;;;;;;12.24;81.47;95869.84;1767028;81;21017;-64
2022/07/07 00:09:46;;;;;;;6.37;1.62;;;;;;;12.23;81.47;95868.58;1767000;81;20989;-64
2022/07/07 00:12:13;;;;;;;2.67;1.57;;;;;;;12.13;81.89;95866.56;1766925;81;21029;-64
2022/07/07 00:14:40;;;;;;;3.83;1.92;;;;;;;12.10;81.56;95860.02;1767411;81;21024;-64
2022/07/07 00:17:06;;;;;;;2.67;1.60;;;;;;;12.04;81.52;95863.64;1766720;81;21020;-64
2022/07/07 00:19:33;;;;;;;1.95;1.42;;;;;;;12.06;81.75;95861.84;1767285;81;20960;-64
2022/07/07 00:22:01;;;;;;;3.27;1.87;;;;;;;12.08;81.73;95857.39;1767150;81;20993;-64
2022/07/07 00:24:28;;;;;;;1.70;1.60;;;;;;;12.13;81.64;95852.88;1766671;81;21025;-64
2022/07/07 00:26:54;;;;;;;3.33;1.70;;;;;;;12.15;81.37;95857.29;1767124;81;21032;-64
2022/07/07 00:29:21;;;;;;;4.35;1.60;;;;;;;12.05;80.85;95848.21;1765068;81;20989;-64
2022/07/07 00:31:48;;;;;;;2.72;2.00;;;;;;;11.94;81.02;95853.28;1763979;81;21027;-64
2022/07/07 00:34:15;;;;;;;5.30;2.00;;;;;;;11.90;81.67;95849.84;1764249;81;20950;-64
2022/07/07 00:36:43;;;;;;;4.05;1.80;;;;;;;11.89;81.26;95848.08;1763843;81;21120;-64
2022/07/07 00:39:10;;;;;;;2.10;1.85;;;;;;;11.85;81.15;95849.89;1763759;81;21083;-64
2022/07/07 00:41:36;;;;;;;3.70;1.90;;;;;;;11.85;81.78;95856.95;1764180;81;21045;-64
2022/07/07 00:44:05;;;;;;;4.95;2.00;;;;;;;11.78;81.13;95850.91;1764147;81;21503;-64
2022/07/07 00:46:40;;;;;;;3.45;1.82;;;;;;;11.85;81.60;95849.02;1764060;81;21562;-64
2022/07/07 00:49:07;;;;;;;2.72;2.30;;;;;;;11.94;81.56;95847.53;1763894;81;21004;-64
2022/07/07 00:51:35;;;;;;;2.40;1.80;;;;;;;11.93;81.37;95848.91;1759422;81;20981;-64
2022/07/07 00:54:01;;;;;;;2.75;1.80;;;;;;;11.92;81.22;95840.11;1764166;81;21009;-64
2022/07/07 00:56:28;;;;;;;2.15;1.80;;;;;;;11.88;81.12;95839.73;1764190;81;21494;-64
2022/07/07 00:58:55;;;;;;;3.08;1.90;;;;;;;11.80;81.09;95843.83;1763968;81;21020;-64
2022/07/07 01:01:23;;;;;;;2.20;2.00;;;;;;;11.65;82.54;95851.59;1764154;81;21033;-64
2022/07/07 01:03:50;;;;;;;3.37;1.90;;;;;;;11.60;81.63;95852.58;1764595;81;20993;-64
2022/07/07 01:06:17;;;;;;;2.58;1.90;;;;;;;11.63;82.23;95852.06;1764160;81;20958;-64
2022/07/07 01:08:44;;;;;;;3.17;1.77;;;;;;;11.60;81.87;95842.88;1763715;81;21036;-64
2022/07/07 01:11:10;;;;;;;3.17;1.95;;;;;;;11.62;81.84;95852.11;1764169;81;21522;-64
2022/07/07 01:13:40;;;;;;;3.50;1.70;;;;;;;11.66;82.14;95852.45;1763659;81;21084;-64
2022/07/07 01:16:06;;;;;;;2.33;1.60;;;;;;;11.59;81.49;95851.72;1764189;81;21009;-64
2022/07/07 01:18:33;;;;;;;5.10;2.05;;;;;;;11.58;82.04;95864.48;1764288;81;21005;-64
2022/07/07 01:21:03;;;;;;;2.35;2.00;;;;;;;11.63;82.37;95860.45;1764261;81;21028;-64
2022/07/07 01:23:30;;;;;;;2.22;1.87;;;;;;;11.65;82.13;95849.41;1763985;81;20997;-64
2022/07/07 01:25:57;;;;;;;8.10;2.25;;;;;;;11.61;81.98;95859.59;1764108;81;21036;-64
2022/07/07 01:28:24;;;;;;;2.83;1.70;;;;;;;11.59;82.00;95858.75;1764139;81;21507;-64
2022/07/07 01:30:50;;;;;;;1.90;1.80;;;;;;;11.61;81.95;95849.89;1764319;81;21044;-64
2022/07/07 01:33:17;;;;;;;2.45;2.25;;;;;;;11.59;82.11;95853.46;1764302;81;21013;-64
2022/07/07 01:35:43;;;;;;;3.42;2.35;;;;;;;11.58;81.97;95841.16;1763960;81;21072;-64
2022/07/07 01:38:10;;;;;;;5.10;2.33;;;;;;;11.67;82.29;95849.80;1764246;81;21011;-64
2022/07/07 01:40:37;;;;;;;2.95;2.00;;;;;;;11.73;82.26;95848.80;1764083;81;21009;-64
2022/07/07 01:43:04;;;;;;;3.92;2.12;;;;;;;11.64;81.60;95853.83;1764327;81;21040;-64
2022/07/07 01:45:31;;;;;;;4.55;2.12;;;;;;;11.54;81.57;95850.03;1764370;81;20969;-64
2022/07/07 01:47:58;;;;;;;7.40;2.20;;;;;;;11.45;81.45;95851.09;1764144;81;20974;-64
2022/07/07 01:50:25;;;;;;;3.80;2.20;;;;;;;11.44;82.03;95849.32;1763954;81;21016;-64
2022/07/07 01:52:51;;;;;;;8.15;2.30;;;;;;;11.50;82.02;95844.41;1764411;81;21016;-64
2022/07/07 01:55:18;;;;;;;2.50;2.30;;;;;;;11.56;81.92;95845.59;1763735;81;21025;-64
2022/07/07 01:57:45;;;;;;;3.05;2.08;;;;;;;11.54;81.40;95851.36;1764230;81;20989;-64
2022/07/07 02:00:14;;;;;;;1.95;1.85;;;;;;;11.56;81.75;95845.14;1764293;81;21032;-64
2022/07/07 02:02:41;;;;;;;6.58;2.58;;;;;;;11.45;80.92;95855.91;1764164;81;21507;-64
2022/07/07 02:05:08;;;;;;;5.45;2.72;;;;;;;11.39;81.69;95851.17;1763935;81;21080;-64
2022/07/07 02:07:36;;;;;;;2.40;2.20;;;;;;;11.32;82.40;95857.50;1764170;81;21550;-64
2022/07/07 02:10:05;;;;;;;3.20;2.20;;;;;;;11.30;82.25;95860.60;1763905;81;21037;-64
2022/07/07 02:12:32;;;;;;;3.42;2.27;;;;;;;11.30;82.05;95860.15;1764330;81;20997;-64
2022/07/07 02:14:58;;;;;;;2.30;2.10;;;;;;;11.21;82.43;95865.16;1764260;81;21001;-64
2022/07/07 02:17:25;;;;;;;2.62;2.17;;;;;;;11.15;81.84;95863.05;1764080;81;21018;-65
2022/07/07 02:19:52;;;;;;;3.65;2.30;;;;;;;11.20;82.65;95865.17;1763930;81;21021;-64
2022/07/07 02:22:18;;;;;;;5.47;2.47;;;;;;;11.22;82.29;95863.37;1764313;81;20977;-64
2022/07/07 02:24:47;;;;;;;3.27;2.22;;;;;;;11.19;82.28;95864.75;1764133;81;20993;-64
2022/07/07 02:27:13;;;;;;;2.92;2.30;;;;;;;11.20;81.93;95869.13;1764144;81;21106;-64
2022/07/07 02:29:40;;;;;;;2.27;1.95;;;;;;;11.22;82.05;95867.34;1766237;81;21048;-64
2022/07/07 02:32:08;;;;;;;2.30;2.00;;;;;;;11.19;81.71;95870.03;1766749;81;21016;-64
2022/07/07 02:34:35;;;;;;;2.92;2.00;;;;;;;11.16;81.61;95868.32;1767211;81;21009;-64
2022/07/07 02:37:01;;;;;;;5.10;2.12;;;;;;;11.12;81.20;95864.43;1767135;81;20993;-65
2022/07/07 02:39:28;;;;;;;3.70;2.40;;;;;;;11.12;81.56;95869.71;1766998;81;21008;-64
2022/07/07 02:41:55;;;;;;;3.62;2.20;;;;;;;11.13;81.97;95874.95;1766990;81;20982;-64
2022/07/07 02:44:22;;;;;;;4.78;1.75;;;;;;;11.20;81.87;95871.31;1767255;81;21483;-64
2022/07/07 02:46:49;;;;;;;2.30;2.10;;;;;;;11.16;81.08;95874.92;1767234;81;21013;-64
2022/07/07 02:49:16;;;;;;;5.17;2.40;;;;;;;11.03;80.89;95873.35;1767318;81;21005;-64
2022/07/07 02:51:42;;;;;;;6.10;2.10;;;;;;;10.99;81.20;95871.68;1767038;81;21027;-64
2022/07/07 02:54:09;;;;;;;5.25;2.30;;;;;;;10.96;81.64;95867.31;1767022;81;21041;-64
2022/07/07 02:56:36;;;;;;;12.95;2.72;;;;;;;10.99;82.51;95869.91;1767199;81;21029;-64
2022/07/07 02:59:03;;;;;;;2.42;2.22;;;;;;;11.05;82.64;95876.39;1767176;81;20977;-64
2022/07/07 03:01:29;;;;;;;2.30;2.10;;;;;;;11.12;82.31;95869.71;1767201;81;21040;-64
2022/07/07 03:03:56;;;;;;;2.00;1.90;;;;;;;11.07;81.99;95870.23;1767451;81;20945;-64
2022/07/07 03:06:22;;;;;;;5.28;2.47;;;;;;;11.02;81.65;95870.30;1767098;81;21064;-64
2022/07/07 03:08:49;;;;;;;4.55;2.10;;;;;;;10.93;82.18;95871.75;1767222;81;21016;-64
2022/07/07 03:11:17;;;;;;;4.28;2.72;;;;;;;10.94;82.70;95874.38;1766997;81;21064;-64
2022/07/07 03:13:44;;;;;;;2.20;2.00;;;;;;;11.04;82.47;95872.48;1767166;81;21012;-64
2022/07/07 03:16:10;;;;;;;2.77;2.40;;;;;;;11.01;81.58;95873.39;1767192;81;21023;-64
2022/07/07 03:18:37;;;;;;;2.47;2.27;;;;;;;10.90;81.41;95861.25;1767426;81;21024;-64
2022/07/07 03:21:03;;;;;;;2.75;2.33;;;;;;;10.81;82.19;95866.23;1767108;81;21055;-64
2022/07/07 03:23:30;;;;;;;3.98;2.12;;;;;;;10.78;84.04;95871.53;1767228;81;20941;-64
2022/07/07 03:25:57;;;;;;;3.67;1.92;;;;;;;10.81;83.20;95876.34;1766797;81;21004;-64
2022/07/07 03:28:23;;;;;;;2.75;2.30;;;;;;;10.81;84.25;95882.94;1767110;81;20984;-64
2022/07/07 03:30:50;;;;;;;5.33;2.50;;;;;;;10.82;84.42;95871.92;1763960;81;21068;-64
2022/07/07 03:33:16;;;;;;;3.90;2.58;;;;;;;10.88;84.02;95872.27;1764158;81;21466;-64
2022/07/07 03:35:43;;;;;;;3.20;2.22;;;;;;;10.87;83.45;95871.86;1764221;81;20997;-64
2022/07/07 03:38:10;;;;;;;2.77;2.50;;;;;;;10.82;82.93;95866.20;1764326;81;20957;-64
2022/07/07 03:40:37;;;;;;;4.58;2.58;;;;;;;10.72;83.68;95869.00;1763767;81;21001;-64
2022/07/07 03:43:04;;;;;;;2.45;2.25;;;;;;;10.78;84.33;95863.16;1764244;81;21000;-64
2022/07/07 03:45:30;;;;;;;2.80;2.60;;;;;;;10.84;84.79;95867.50;1764392;81;20997;-64
2022/07/07 03:47:57;;;;;;;2.33;2.12;;;;;;;10.92;85.37;95866.93;1764082;81;21443;-64
2022/07/07 03:50:23;;;;;;;2.30;2.10;;;;;;;10.98;85.32;95865.50;1764106;81;21343;-64
2022/07/07 03:52:50;;;;;;;3.10;2.80;;;;;;;11.08;85.42;95865.36;1764457;81;21012;-64
2022/07/07 03:55:17;;;;;;;2.58;2.37;;;;;;;11.18;85.04;95862.99;1763972;81;20961;-64
2022/07/07 03:57:43;;;;;;;3.95;2.75;;;;;;;11.30;84.52;95859.28;1764406;81;21072;-64
2022/07/07 04:00:12;;;;;;;3.50;2.52;;;;;;;11.42;84.73;95851.15;1764191;81;20989;-64
2022/07/07 04:02:39;;;;;;;3.17;2.62;;;;;;;11.55;84.55;95853.12;1764251;81;21017;-64
2022/07/07 04:05:07;;;;;;;2.95;2.35;;;;;;;11.70;84.38;95856.34;1764172;81;21491;-64
2022/07/07 04:07:34;;;;;;;3.12;2.50;;;;;;;11.85;84.08;95851.67;1764096;81;21036;-64
2022/07/07 04:10:02;;;;;;;3.77;2.37;;;;;;;11.96;83.54;95853.67;1763673;81;21096;-64
2022/07/07 04:12:29;;;;;;;3.00;2.67;;;;;;;12.03;83.67;95855.30;1764239;81;20961;-64
2022/07/07 04:14:57;;;;;;;5.12;2.60;;;;;;;12.15;83.32;95864.77;1764089;81;21013;-65
2022/07/07 04:17:25;;;;;;;2.90;2.70;;;;;;;12.36;83.44;95864.76;1763847;81;21053;-64
2022/07/07 04:19:51;;;;;;;3.12;2.30;;;;;;;12.51;82.87;95855.63;1763959;81;21048;-64
2022/07/07 04:22:18;;;;;;;3.62;2.37;;;;;;;12.66;82.75;95857.06;1729509;81;21005;-64
2022/07/07 04:24:44;;;;;;;2.62;2.42;;;;;;;12.72;82.28;95859.56;1764138;81;20985;-64
2022/07/07 04:27:12;;;;;;;2.80;2.30;;;;;;;12.80;82.51;95855.41;1764135;81;21073;-64
2022/07/07 04:29:38;;;;;;;2.58;2.37;;;;;;;12.82;82.15;95847.84;1731773;81;21079;-64
2022/07/07 04:32:06;;;;;;;2.90;2.50;;;;;;;12.86;82.57;95851.31;1769588;81;20977;-64
2022/07/07 04:34:33;;;;;;;3.20;2.75;;;;;;;13.01;82.71;95848.76;1769677;81;21463;-64
2022/07/07 04:36:59;;;;;;;5.50;2.58;;;;;;;13.17;82.09;95842.16;1769328;81;21004;-64
2022/07/07 04:39:26;;;;;;;3.70;2.17;;;;;;;13.27;80.93;95838.87;1769540;81;20973;-65
2022/07/07 04:41:53;;;;;;;3.08;2.60;;;;;;;13.32;79.81;95839.63;1769607;81;21044;-64
2022/07/07 04:44:19;;;;;;;3.37;2.40;;;;;;;13.40;80.18;95834.98;1769661;81;20984;-64
2022/07/07 04:46:46;;;;;;;6.10;2.90;;;;;;;13.51;80.63;95837.38;1769434;81;21036;-64
2022/07/07 04:49:13;;;;;;;3.80;2.80;;;;;;;13.67;80.55;95839.16;1769619;81;21515;-64
2022/07/07 04:51:40;;;;;;;4.17;2.80;;;;;;;13.76;79.64;95838.92;1769273;81;21024;-64
2022/07/07 04:54:06;;;;;;;3.05;2.83;;;;;;;13.83;79.49;95842.70;1769524;81;21039;-64
2022/07/07 04:56:33;;;;;;;5.10;2.87;;;;;;;13.89;77.32;95839.45;1769574;81;21009;-64
2022/07/07 04:59:00;;;;;;;3.90;3.10;;;;;;;13.90;78.18;95844.70;1769472;81;21526;-64
2022/07/07 05:01:26;;;;;;;3.17;2.92;;;;;;;14.01;79.23;95843.07;1769845;81;21040;-64
2022/07/07 05:03:53;;;;;;;3.27;3.02;;;;;;;14.14;79.27;95840.50;1769982;81;20981;-64
2022/07/07 05:06:20;;;;;;;3.20;2.90;;;;;;;14.28;79.23;95841.41;1769760;81;21028;-64
2022/07/07 05:08:47;;;;;;;3.47;3.17;;;;;;;14.40;79.48;95844.18;1769862;81;21027;-65
2022/07/07 05:11:13;;;;;;;3.12;2.92;;;;;;;14.49;78.95;95839.47;1769608;81;21032;-64
2022/07/07 05:13:40;;;;;;;3.00;2.80;;;;;;;14.55;78.44;95841.09;1769594;81;21086;-64
2022/07/07 05:16:07;;;;;;;3.08;2.87;;;;;;;14.63;78.23;95843.52;1769719;81;20981;-64
2022/07/07 05:18:34;;;;;;;3.77;3.40;;;;;;;14.73;78.10;95844.11;1769645;81;20977;-64
2022/07/07 05:21:00;;;;;;;3.50;3.20;;;;;;;14.79;78.48;95813.36;1769812;81;20973;-64
2022/07/07 05:23:27;;;;;;;4.80;3.35;;;;;;;14.88;78.71;95829.02;1769787;81;20968;-64
2022/07/07 05:25:55;;;;;;;3.00;2.80;;;;;;;14.77;75.87;95833.81;1769245;81;21040;-64
2022/07/07 05:28:22;;;;;;;3.12;2.90;;;;;;;14.73;76.24;95838.33;1769965;81;20985;-64
2022/07/07 05:30:49;;;;;;;7.20;2.90;;;;;;;14.79;76.34;95833.28;1767691;81;21013;-64
2022/07/07 05:33:16;;;;;;;3.52;2.90;;;;;;;15.07;76.86;95838.15;1767050;81;21049;-64
2022/07/07 05:35:43;;;;;;;4.00;3.00;;;;;;;15.07;76.86;95838.15;1766930;81;20993;-64
2022/07/07 05:38:09;;;;;;;2.87;2.58;;;;;;;15.25;75.85;95834.48;1767302;81;21510;-65
2022/07/07 05:40:36;;;;;;;3.47;2.95;;;;;;;15.41;76.45;95835.70;1766705;81;21036;-64
2022/07/07 05:43:03;;;;;;;2.77;2.58;;;;;;;15.61;76.36;95835.02;1767299;81;20997;-64
2022/07/07 05:45:31;;;;;;;3.83;3.00;;;;;;;15.75;76.00;95823.48;1767261;81;21056;-64
2022/07/07 05:47:58;;;;;;;3.30;2.90;;;;;;;15.98;75.23;95834.63;1767160;81;21056;-65
2022/07/07 05:50:25;;;;;;;2.75;2.55;;;;;;;16.15;75.28;95839.79;1767343;81;21064;-65
2022/07/07 05:52:51;;;;;;;3.62;2.52;;;;;;;16.34;74.66;95834.67;1767266;81;21009;-64
2022/07/07 05:55:18;;;;;;;3.58;2.37;;;;;;;16.44;73.64;95832.92;1767075;81;21041;-65
2022/07/07 05:57:45;;;;;;;2.90;2.70;;;;;;;16.55;73.16;95837.84;1766920;81;21056;-65
2022/07/07 06:00:13;;;;;;;2.90;2.58;;;;;;;16.66;72.68;95835.65;1767315;81;20965;-64
2022/07/07 06:02:40;;;;;;;3.33;2.62;;;;;;;16.78;71.92;95834.78;1767061;81;20985;-64
2022/07/07 06:05:07;;;;;;;3.00;2.62;;;;;;;16.84;71.60;95832.76;1767266;81;20957;-64
2022/07/07 06:07:34;;;;;;;3.25;3.05;;;;;;;17.03;71.92;95836.02;1766826;81;21056;-64
2022/07/07 06:10:01;;;;;;;2.77;2.58;;;;;;;17.18;71.98;95831.86;1767229;81;20989;-65
2022/07/07 06:12:29;;;;;;;2.98;2.70;;;;;;;17.33;71.30;95827.70;1767348;81;21044;-64
2022/07/07 06:14:55;;;;;;;3.12;2.80;;;;;;;17.50;71.65;95819.39;1767182;81;21045;-64
2022/07/07 06:17:22;;;;;;;2.67;2.45;;;;;;;17.66;70.87;95824.08;1767353;81;20987;-65
2022/07/07 06:19:49;;;;;;;2.80;2.50;;;;;;;17.73;68.66;95814.41;1767323;81;21487;-64
2022/07/07 06:22:15;;;;;;;2.77;2.52;;;;;;;17.80;67.05;95819.53;1767245;81;20993;-65
2022/07/07 06:24:42;;;;;;;2.60;2.40;;;;;;;17.90;68.64;95815.05;1767074;81;21017;-64
2022/07/07 06:27:08;;;;;;;2.10;2.00;;;;;;;18.02;65.05;95820.80;1767258;81;21009;-64
2022/07/07 06:29:35;;;;;;;2.45;2.25;;;;;;;18.06;62.05;95812.56;1767096;81;21033;-65
2022/07/07 06:32:03;;;;;;;3.55;2.00;;;;;;;18.19;64.79;95815.55;1767273;81;21511;-65
2022/07/07 06:34:30;;;;;;;2.65;2.12;;;;;;;18.33;63.22;95808.25;1767219;81;21009;-64
2022/07/07 06:36:57;;;;;;;2.33;2.12;;;;;;;18.43;62.14;95808.23;1766923;81;21013;-65
2022/07/07 06:39:23;;;;;;;3.22;2.10;;;;;;;18.51;61.35;95808.73;1767424;81;21012;-65
2022/07/07 06:41:50;;;;;;;2.00;1.80;;;;;;;18.56;60.96;95808.53;1766784;81;21080;-65
2022/07/07 06:44:17;;;;;;;2.30;2.10;;;;;;;18.64;60.07;95804.16;1767021;81;20959;-65
2022/07/07 06:46:44;;;;;;;2.02;1.85;;;;;;;18.79;60.29;95808.33;1766815;81;21314;-64
2022/07/07 06:49:12;;;;;;;3.12;1.80;;;;;;;18.96;60.54;95806.20;1766852;81;21067;-64
2022/07/07 06:51:39;;;;;;;3.70;2.08;;;;;;;19.08;55.39;95802.08;1767091;81;21014;-65
2022/07/07 06:54:06;;;;;;;2.00;1.80;;;;;;;19.19;57.69;95799.72;1767106;81;21017;-65
2022/07/07 06:56:33;;;;;;;2.20;2.00;;;;;;;19.28;56.60;95805.55;1767006;81;20969;-65
2022/07/07 06:59:00;;;;;;;3.30;1.90;;;;;;;19.38;57.38;95801.51;1767435;81;21013;-65
2022/07/07 07:01:26;;;;;;;2.25;1.62;;;;;;;19.54;57.58;95805.61;1767416;81;20973;-65
2022/07/07 07:03:53;;;;;;;4.00;1.70;;;;;;;19.67;57.68;95800.05;1767280;81;21045;-65
2022/07/07 07:06:20;;;;;;;3.12;1.80;;;;;;;19.74;55.60;95803.29;1766790;81;21060;-65
2022/07/07 07:08:48;;;;;;;4.03;2.10;;;;;;;19.81;53.92;95802.03;1767524;81;20992;-65
2022/07/07 07:11:15;;;;;;;4.97;1.82;;;;;;;19.83;53.82;95802.80;1766951;81;21072;-65
2022/07/07 07:13:41;;;;;;;2.33;2.00;;;;;;;19.90;54.74;95805.55;1767219;81;20974;-65
2022/07/07 07:16:08;;;;;;;3.60;2.02;;;;;;;19.94;51.91;95807.61;1734450;81;21029;-65
2022/07/07 07:18:35;;;;;;;2.35;2.15;;;;;;;20.05;54.22;95810.10;1767519;81;20977;-65
2022/07/07 07:21:02;;;;;;;3.45;2.00;;;;;;;20.17;52.77;95815.30;1767198;81;21431;-65
2022/07/07 07:23:29;;;;;;;3.35;2.08;;;;;;;20.23;52.87;95810.94;1767050;81;21498;-65
2022/07/07 07:25:56;;;;;;;2.98;1.98;;;;;;;20.31;53.67;95814.58;1766592;81;20965;-65
2022/07/07 07:28:23;;;;;;;5.67;2.02;;;;;;;20.35;53.66;95813.45;1766840;81;21032;-65
2022/07/07 07:30:49;;;;;;;2.70;2.00;;;;;;;20.36;50.85;95813.86;1735876;81;21009;-65
2022/07/07 07:33:17;;;;;;;2.98;2.15;;;;;;;20.40;51.62;95807.36;1769554;81;21005;-65
2022/07/07 07:35:44;;;;;;;4.50;2.40;;;;;;;20.49;51.10;95806.88;1769376;81;21089;-65
2022/07/07 07:38:10;;;;;;;2.83;2.00;;;;;;;20.48;49.38;95801.59;1769918;81;21005;-65
2022/07/07 07:40:37;;;;;;;5.55;1.98;;;;;;;20.52;50.42;95804.50;1768958;81;21077;-65
2022/07/07 07:43:04;;;;;;;4.78;2.10;;;;;;;20.64;50.67;95804.35;1769520;81;21095;-65
2022/07/07 07:45:31;;;;;;;5.28;2.10;;;;;;;20.85;52.53;95807.17;1769230;81;21090;-65
2022/07/07 07:48:01;;;;;;;2.10;1.90;;;;;;;21.06;52.36;95798.38;1769278;81;21052;-65
2022/07/07 07:50:27;;;;;;;2.47;2.22;;;;;;;21.23;51.63;95795.22;1769483;81;21000;-65
2022/07/07 07:52:53;;;;;;;3.00;2.00;;;;;;;21.30;49.75;95801.48;1769301;81;21061;-65
2022/07/07 07:55:21;;;;;;;2.98;2.30;;;;;;;21.26;48.93;95803.09;1766849;81;20981;-64
2022/07/07 07:57:50;;;;;;;3.85;2.10;;;;;;;21.38;49.19;95808.64;1769541;81;21004;-65
2022/07/07 08:00:20;;;;;;;3.70;2.42;;;;;;;21.44;48.90;95806.56;1769677;81;21009;-65
2022/07/07 08:02:48;;;;;;;2.42;1.92;;;;;;;21.38;47.12;95808.64;1769526;81;21005;-65
2022/07/07 08:05:16;;;;;;;5.22;2.20;;;;;;;21.49;49.30;95801.30;1769503;81;21091;-65
2022/07/07 08:07:45;;;;;;;4.50;1.90;;;;;;;21.47;47.84;95799.66;1769387;81;21032;-65
2022/07/07 08:10:14;;;;;;;5.12;1.92;;;;;;;21.62;48.65;95800.13;1769520;81;20988;-65
2022/07/07 08:12:43;;;;;;;2.72;2.00;;;;;;;21.75;49.63;95803.81;1769176;81;21089;-65
2022/07/07 08:15:11;;;;;;;6.37;2.30;;;;;;;21.85;48.83;95802.79;1769437;81;21052;-65
2022/07/07 08:17:40;;;;;;;4.97;2.08;;;;;;;21.98;47.89;95795.71;1769590;81;21478;-65
2022/07/07 08:20:08;;;;;;;2.98;2.27;;;;;;;22.02;46.98;95803.09;1769291;81;21047;-65
2022/07/07 08:22:36;;;;;;;2.10;2.00;;;;;;;22.20;48.33;95794.42;1769462;81;21554;-65
2022/07/07 08:25:04;;;;;;;2.00;1.80;;;;;;;22.33;47.52;95795.41;1769512;81;21079;-65
2022/07/07 08:27:31;;;;;;;3.83;2.20;;;;;;;22.41;45.99;95798.97;1769828;81;21056;-65
2022/07/07 08:30:00;;;;;;;2.00;1.90;;;;;;;22.49;45.32;95793.11;1769255;81;21061;-65
2022/07/07 08:32:26;;;;;;;3.30;1.90;;;;;;;22.53;46.61;95788.80;1767271;81;21040;-65
2022/07/07 08:34:53;;;;;;;2.62;2.10;;;;;;;22.62;43.99;95792.72;1767240;81;21008;-65
2022/07/07 08:37:20;;;;;;;5.20;2.08;;;;;;;22.70;46.11;95793.09;1767391;81;21486;-65
2022/07/07 08:39:47;;;;;;;3.35;2.20;;;;;;;22.84;45.88;95790.39;1766955;81;21017;-65
2022/07/07 08:42:13;;;;;;;5.45;2.30;;;;;;;22.82;43.35;95786.07;1767170;81;21024;-65
2022/07/07 08:44:40;;;;;;;3.22;2.35;;;;;;;22.83;44.37;95784.64;1764303;81;21052;-65
2022/07/07 08:47:06;;;;;;;3.12;1.75;;;;;;;22.96;44.47;95779.33;1767303;81;21483;-65
2022/07/07 08:49:33;;;;;;;2.90;2.02;;;;;;;23.11;44.69;95778.85;1767217;81;21052;-65
2022/07/07 08:52:00;;;;;;;4.20;2.20;;;;;;;23.16;44.07;95778.06;1766989;81;21017;-65
2022/07/07 08:54:27;;;;;;;4.25;2.37;;;;;;;23.36;44.88;95782.59;1767215;81;21009;-65
2022/07/07 08:56:55;;;;;;;3.65;2.37;;;;;;;23.61;45.08;95782.71;1766796;81;21020;-65
2022/07/07 08:59:22;;;;;;;2.37;2.17;;;;;;;23.77;44.93;95782.56;1766675;81;21017;-65
2022/07/07 09:01:59;;;;;;;2.17;2.08;;;;;;;23.94;44.00;95787.66;1766975;81;21119;-65
2022/07/07 09:04:26;;;;;;;2.40;2.20;;;;;;;24.06;43.80;95785.94;1767366;81;21523;-65
2022/07/07 09:07:04;;;;;;;2.90;2.15;;;;;;;24.25;45.33;95783.33;1767201;81;20993;-65
2022/07/07 09:09:44;;;;;;;6.55;2.12;;;;;;;24.43;41.46;95781.17;1767265;81;21017;-65
2022/07/07 09:12:14;;;;;;;7.47;2.00;;;;;;;24.33;41.96;95779.60;1766462;81;21024;-65
2022/07/07 09:14:46;;;;;;;5.85;1.82;;;;;;;24.34;43.18;95778.16;1767223;81;21546;-65
2022/07/07 09:17:32;;;;;;;2.07;1.87;;;;;;;24.47;42.89;95778.65;1767691;81;20989;-65
2022/07/07 09:20:14;;;;;;;2.10;1.90;;;;;;;24.35;42.38;95779.88;1767282;81;21024;-65
2022/07/07 09:22:53;;;;;;;2.17;1.97;;;;;;;24.21;41.75;95779.97;1767775;81;21005;-65
2022/07/07 09:25:23;;;;;;;3.02;1.90;;;;;;;23.82;41.17;95788.98;1766987;81;21569;-65
2022/07/07 09:27:55;;;;;;;5.50;2.35;;;;;;;23.41;41.48;95785.84;1767009;81;21017;-65
2022/07/07 09:30:31;;;;;;;2.15;2.05;;;;;;;23.09;42.52;95787.02;1766237;81;22561;-65
2022/07/07 09:33:01;;;;;;;6.12;2.35;;;;;;;22.81;43.33;95789.73;1763123;81;20993;-65
2022/07/07 09:38:25;;;;;;;5.05;2.30;;;;;;;22.25;44.06;95786.48;1764436;81;21037;-65
2022/07/07 09:41:03;;;;;;;5.67;2.10;;;;;;;22.18;44.86;95784.23;1764334;81;21009;-65
2022/07/07 09:43:33;;;;;;;6.65;2.02;;;;;;;22.28;45.08;95782.73;1764445;81;21466;-65
2022/07/07 09:46:17;;;;;;;2.27;2.00;;;;;;;22.88;44.19;95779.83;1764272;81;20958;-65
2022/07/07 09:48:58;;;;;;;3.17;1.72;;;;;;;23.48;40.80;95769.66;1764344;81;21009;-65
2022/07/07 09:51:31;;;;;;;3.00;1.98;;;;;;;23.92;40.31;95769.38;1764197;81;21024;-65
2022/07/07 09:54:12;;;;;;;1.98;1.70;;;;;;;24.39;39.38;95771.95;1764146;81;20992;-65
2022/07/07 09:56:45;;;;;;;2.92;1.70;;;;;;;24.46;37.59;95766.14;1764204;81;21013;-65
2022/07/07 09:59:16;;;;;;;2.00;1.90;;;;;;;24.73;38.76;95770.06;1764100;81;21017;-65
2022/07/07 10:01:46;;;;;;;2.05;1.85;;;;;;;24.93;37.16;95764.08;1764317;81;21024;-65
2022/07/07 10:04:21;;;;;;;2.22;1.75;;;;;;;25.20;36.24;95764.39;1764232;81;21008;-65
2022/07/07 10:06:45;;;;;;;4.35;1.90;;;;;;;25.37;36.25;95757.73;1762664;81;21385;-65
2022/07/07 10:09:20;;;;;;;3.80;1.90;;;;;;;25.46;35.48;95756.56;1764309;81;20981;-65
2022/07/07 10:11:51;;;;;;;1.87;1.75;;;;;;;25.56;36.30;95757.23;1764122;81;21004;-65
2022/07/07 10:14:37;;;;;;;1.70;1.60;;;;;;;25.72;35.52;95746.11;1764137;81;20961;-65
2022/07/07 10:17:04;;;;;;;3.92;1.60;;;;;;;25.80;34.23;95747.23;1763954;81;21566;-65
2022/07/07 10:19:31;;;;;;;1.50;1.40;;;;;;;25.87;32.84;95747.17;1764315;81;21017;-65
2022/07/07 10:22:00;;;;;;;2.85;1.82;;;;;;;25.72;31.88;95740.20;1764215;81;21005;-65
2022/07/07 10:24:29;;;;;;;1.70;1.60;;;;;;;25.81;33.89;95747.63;1759467;81;21008;-66
2022/07/07 10:26:59;;;;;;;2.27;1.65;;;;;;;25.92;33.04;95748.17;1764025;81;20997;-65
2022/07/07 10:29:46;;;;;;;2.67;1.77;;;;;;;25.85;31.87;95740.16;1764128;81;20961;-65
2022/07/07 10:32:20;;;;;;;3.40;1.77;;;;;;;26.02;33.35;95737.02;1765831;81;21024;-65
2022/07/07 10:34:53;;;;;;;2.15;1.50;;;;;;;26.26;31.73;95734.74;1765680;81;21037;-65
2022/07/07 10:37:23;;;;;;;2.08;1.35;;;;;;;26.43;31.18;95731.53;1767193;81;21020;-65
2022/07/07 10:39:54;;;;;;;1.80;1.70;;;;;;;26.56;32.43;95728.77;1767150;81;21059;-65
2022/07/07 10:42:55;;;;;;;3.17;1.67;;;;;;;26.86;32.48;95727.25;1767337;81;21537;-65
2022/07/07 10:45:23;;;;;;;2.05;1.50;;;;;;;27.02;31.32;95731.80;1767006;81;21017;-65
2022/07/07 10:47:50;;;;;;;2.35;1.50;;;;;;;27.01;28.42;95730.56;1767385;81;20988;-65
2022/07/07 10:50:34;;;;;;;1.40;1.30;;;;;;;27.15;29.11;95724.87;1767121;81;21063;-65
2022/07/07 10:53:00;;;;;;;2.33;1.55;;;;;;;27.40;30.05;95721.88;1767348;81;21020;-65
2022/07/07 10:55:52;;;;;;;1.65;1.50;;;;;;;27.65;28.43;95725.23;1767006;81;21820;-65
2022/07/07 10:59:00;;;;;;;1.72;1.50;;;;;;;27.87;28.44;95720.24;1766258;81;21004;-65
2022/07/07 11:01:32;;;;;;;6.40;1.50;;;;;;;28.07;30.01;95712.22;1767245;81;21013;-65
2022/07/07 11:03:59;;;;;;;2.17;1.57;;;;;;;28.14;29.18;95719.69;1767270;81;20977;-66
2022/07/07 11:06:25;;;;;;;3.27;1.47;;;;;;;28.06;28.78;95726.28;1764184;81;21104;-65
2022/07/07 11:09:00;;;;;;;1.40;1.30;;;;;;;27.63;27.42;95721.80;1767506;81;21424;-65
2022/07/07 11:11:28;;;;;;;1.50;1.40;;;;;;;27.48;28.56;95720.38;1766970;81;21017;-65
2022/07/07 11:14:07;;;;;;;2.08;1.40;;;;;;;27.13;28.78;95722.78;1767019;81;21012;-65
2022/07/07 11:16:34;;;;;;;1.62;1.52;;;;;;;26.93;29.59;95723.06;1767014;81;21534;-65
2022/07/07 11:19:04;;;;;;;2.47;1.65;;;;;;;27.04;28.35;95721.70;1767114;81;21020;-65
2022/07/07 11:21:40;;;;;;;2.20;1.47;;;;;;;27.37;29.98;95718.58;1766854;81;21025;-65
2022/07/07 11:24:18;;;;;;;3.30;1.50;;;;;;;27.73;30.37;95718.66;1767066;81;20977;-65
2022/07/07 11:26:58;;;;;;;1.70;1.60;;;;;;;28.13;30.80;95723.91;1766979;81;21063;-65
2022/07/07 11:29:25;;;;;;;3.17;1.47;;;;;;;27.90;27.83;95717.27;1766008;81;21143;-66
2022/07/07 11:32:08;;;;;;;2.00;1.42;;;;;;;27.78;29.18;95717.77;1765864;81;21016;-66
2022/07/07 11:34:50;;;;;;;2.25;2.05;;;;;;;27.93;29.42;95717.49;1764340;81;21079;-65
2022/07/07 11:37:29;;;;;;;2.08;1.80;;;;;;;27.56;29.00;95718.73;1764184;81;21467;-65
2022/07/07 11:39:57;;;;;;;2.42;2.22;;;;;;;27.07;29.50;95721.95;1764415;81;21516;-65
2022/07/07 11:42:26;;;;;;;1.95;1.57;;;;;;;26.52;29.75;95725.43;1764058;81;20997;-65
2022/07/07 11:44:53;;;;;;;2.77;1.90;;;;;;;26.29;31.07;95727.23;1763536;81;21009;-65